createdAt,value
2019-04-16T00:00:04.933Z,52.01
2019-04-16T00:02:51.256Z,52.14
2019-04-16T00:05:41.598Z,52.54
2019-04-16T00:08:37.173Z,52.59
2019-04-16T00:11:13.690Z,52.62
2019-04-16T00:13:47.793Z,52.85
2019-04-16T00:16:18.227Z,53.18
2019-04-16T00:18:57.135Z,53.07
2019-04-16T00:21:51.636Z,53.03
2019-04-16T00:24:29.157Z,53.05
2019-04-16T00:27:00.080Z,52.52
2019-04-16T00:29:33.018Z,52.36
2019-04-16T00:32:20.317Z,51.83
2019-04-16T00:34:50.820Z,51.43
2019-04-16T00:37:21.676Z,51.36
2019-04-16T00:39:55.590Z,51.26
2019-04-16T00:42:24.449Z,51.04
2019-04-16T00:44:54.942Z,50.88
2019-04-16T00:47:25.435Z,50.71
2019-04-16T00:49:58.837Z,50.74
2019-04-16T00:52:28.135Z,50.15
2019-04-16T00:54:58.589Z,50.35
2019-04-16T00:57:29.075Z,50.53
2019-04-16T00:59:59.520Z,50.75
2019-04-16T01:02:30.022Z,50.73
2019-04-16T01:05:00.514Z,50.90
2019-04-16T01:07:30.981Z,50.92
2019-04-16T01:10:01.504Z,50.59
2019-04-16T01:12:31.948Z,50.68
2019-04-16T01:15:02.432Z,50.47
2019-04-16T01:17:33.465Z,50.69
2019-04-16T01:20:05.364Z,50.48
2019-04-16T01:22:35.954Z,50.27
2019-04-16T01:25:06.965Z,50.56
2019-04-16T01:27:44.525Z,50.85
2019-04-16T01:30:17.177Z,50.86
2019-04-16T01:33:02.919Z,51.00
2019-04-16T01:36:10.251Z,50.97
2019-04-16T01:38:46.025Z,50.75
2019-04-16T01:41:21.750Z,50.58
2019-04-16T01:43:49.546Z,50.58
2019-04-16T01:46:20.049Z,50.50
2019-04-16T01:48:50.502Z,50.42
2019-04-16T01:51:21.006Z,50.47
2019-04-16T01:53:52.293Z,50.77
2019-04-16T01:56:27.802Z,50.96
2019-04-16T01:58:55.578Z,51.13
2019-04-16T02:01:26.058Z,51.27
2019-04-16T02:03:56.503Z,51.73
2019-04-16T02:06:27.001Z,51.98
2019-04-16T02:09:01.739Z,52.03
2019-04-16T02:11:29.810Z,51.92
2019-04-16T02:14:00.720Z,51.99
2019-04-16T02:16:31.224Z,51.65
2019-04-16T02:19:02.429Z,51.52
2019-04-16T02:21:33.167Z,51.18
2019-04-16T02:24:03.666Z,51.29
2019-04-16T02:26:34.140Z,51.25
2019-04-16T02:29:04.791Z,51.21
2019-04-16T02:31:35.380Z,51.05
2019-04-16T02:34:05.815Z,51.44
2019-04-16T02:36:36.267Z,51.56
2019-04-16T02:39:09.431Z,51.62
2019-04-16T02:41:39.867Z,51.94
2019-04-16T02:44:14.171Z,51.85
2019-04-16T02:46:42.499Z,52.10
2019-04-16T02:49:12.991Z,51.92
2019-04-16T02:52:05.498Z,51.59
2019-04-16T02:54:46.637Z,51.85
2019-04-16T02:57:47.994Z,51.19
2019-04-16T03:00:40.350Z,51.53
2019-04-16T03:03:14.710Z,51.02
2019-04-16T03:05:47.955Z,50.85
2019-04-16T03:08:18.405Z,50.82
2019-04-16T03:10:49.602Z,50.76
2019-04-16T03:13:23.034Z,50.85
2019-04-16T03:16:23.147Z,50.68
2019-04-16T03:18:58.151Z,50.54
2019-04-16T03:21:28.655Z,50.83
2019-04-16T03:23:59.100Z,50.43
2019-04-16T03:26:29.560Z,50.39
2019-04-16T03:29:00.050Z,50.35
2019-04-16T03:31:30.504Z,50.29
2019-04-16T03:34:00.984Z,50.44
2019-04-16T03:36:31.455Z,51.25
2019-04-16T03:39:01.877Z,51.11
2019-04-16T03:41:32.379Z,51.22
2019-04-16T03:44:04.079Z,51.49
2019-04-16T03:46:35.082Z,52.04
2019-04-16T03:49:05.645Z,52.10
2019-04-16T03:51:36.571Z,52.34
2019-04-16T03:54:07.140Z,53.09
2019-04-16T03:56:37.602Z,53.42
2019-04-16T03:59:11.844Z,54.46
2019-04-16T04:01:40.350Z,55.39
2019-04-16T04:04:10.830Z,55.49
2019-04-16T04:06:41.327Z,56.92
2019-04-16T04:09:11.826Z,56.75
2019-04-16T04:11:42.434Z,56.85
2019-04-16T04:14:12.891Z,57.26
2019-04-16T04:16:43.383Z,57.32
2019-04-16T04:19:15.687Z,57.43
2019-04-16T04:21:46.083Z,58.71
2019-04-16T04:24:16.810Z,58.53
2019-04-16T04:26:47.356Z,57.93
2019-04-16T04:29:20.734Z,57.46
2019-04-16T04:31:49.998Z,58.30
2019-04-16T04:34:20.460Z,58.27
2019-04-16T04:36:50.914Z,58.09
2019-04-16T04:39:21.400Z,58.41
2019-04-16T04:41:52.682Z,58.77
2019-04-16T04:44:24.072Z,58.17
2019-04-16T04:46:54.523Z,58.67
2019-04-16T04:49:30.036Z,58.27
2019-04-16T04:51:57.479Z,58.14
2019-04-16T04:54:27.942Z,57.89
2019-04-16T04:56:59.188Z,58.37
2019-04-16T04:59:36.511Z,58.08
2019-04-16T05:02:04.267Z,57.42
2019-04-16T05:04:59.751Z,57.15
2019-04-16T05:07:30.250Z,56.51
2019-04-16T05:10:00.724Z,56.08
2019-04-16T05:12:31.187Z,55.85
2019-04-16T05:15:03.906Z,55.06
2019-04-16T05:17:35.459Z,56.20
2019-04-16T05:20:06.394Z,55.82
2019-04-16T05:22:36.931Z,56.03
2019-04-16T05:25:07.430Z,55.69
2019-04-16T05:27:41.279Z,55.42
2019-04-16T05:30:19.959Z,55.40
2019-04-16T05:32:46.794Z,55.39
2019-04-16T05:35:17.368Z,55.31
2019-04-16T05:37:48.587Z,55.21
2019-04-16T05:40:20.655Z,55.13
2019-04-16T05:42:58.290Z,54.97
2019-04-16T05:45:26.572Z,54.86
2019-04-16T05:47:57.592Z,55.07
2019-04-16T05:50:29.632Z,54.83
2019-04-16T05:53:00.408Z,54.31
2019-04-16T05:55:57.406Z,54.35
2019-04-16T05:58:30.862Z,53.50
2019-04-16T06:01:22.106Z,53.30
2019-04-16T06:03:53.530Z,53.19
2019-04-16T06:06:24.678Z,52.27
2019-04-16T06:08:56.186Z,51.99
2019-04-16T06:11:32.567Z,52.81
2019-04-16T06:14:04.519Z,51.90
2019-04-16T06:16:59.651Z,51.20
2019-04-16T06:19:57.935Z,50.82
2019-04-16T06:22:42.599Z,51.02
2019-04-16T06:25:32.339Z,50.68
2019-04-16T06:28:20.065Z,50.47
2019-04-16T06:31:16.071Z,50.05
2019-04-16T06:34:08.146Z,50.06
2019-04-16T06:36:45.829Z,49.25
2019-04-16T06:39:29.720Z,49.79
2019-04-16T06:42:25.654Z,49.04
2019-04-16T06:44:58.297Z,48.74
2019-04-16T06:47:45.979Z,48.30
2019-04-16T06:50:32.492Z,47.57
2019-04-16T06:53:10.546Z,47.90
2019-04-16T06:56:05.600Z,46.36
2019-04-16T06:58:51.666Z,44.62
2019-04-16T07:01:42.035Z,44.61
2019-04-16T07:04:22.265Z,44.74
2019-04-16T07:07:10.376Z,44.74
2019-04-16T07:09:59.621Z,44.04
2019-04-16T07:12:37.912Z,41.22
2019-04-16T07:15:08.525Z,41.09
2019-04-16T07:17:40.618Z,40.82
2019-04-16T07:20:13.495Z,40.43
2019-04-16T07:22:43.681Z,40.74
2019-04-16T07:25:14.668Z,40.65
2019-04-16T07:27:59.742Z,40.76
2019-04-16T07:30:38.664Z,40.65
2019-04-16T07:33:26.022Z,40.28
2019-04-16T07:36:28.038Z,40.15
2019-04-16T07:39:29.901Z,39.41
2019-04-16T07:42:21.606Z,39.75
2019-04-16T07:45:20.107Z,39.14
2019-04-16T07:48:23.158Z,39.32
2019-04-16T07:51:11.124Z,40.72
2019-04-16T07:54:02.146Z,39.08
2019-04-16T07:56:31.202Z,39.69
2019-04-16T07:59:02.147Z,38.88
2019-04-16T08:01:32.870Z,36.95
2019-04-16T08:04:03.619Z,37.71
2019-04-16T08:06:34.323Z,36.78
2019-04-16T08:09:06.223Z,36.46
2019-04-16T08:11:36.730Z,36.81
2019-04-16T08:14:09.814Z,37.09
2019-04-16T08:16:47.292Z,37.67
2019-04-16T08:19:15.165Z,37.63
2019-04-16T08:21:44.748Z,37.76
2019-04-16T08:24:24.363Z,37.26
2019-04-16T08:26:52.317Z,40.11
2019-04-16T08:29:26.217Z,41.10
2019-04-16T08:31:55.088Z,41.70
2019-04-16T08:34:25.600Z,41.07
2019-04-16T08:36:56.062Z,40.82
2019-04-16T08:39:26.578Z,40.77
2019-04-16T08:41:57.053Z,40.70
2019-04-16T08:44:27.614Z,40.58
2019-04-16T08:46:59.158Z,41.31
2019-04-16T08:49:30.055Z,41.20
2019-04-16T08:52:00.572Z,40.44
2019-04-16T08:54:31.047Z,40.96
2019-04-16T08:57:01.629Z,40.36
2019-04-16T08:59:32.174Z,39.67
2019-04-16T09:02:02.737Z,39.69
2019-04-16T09:04:34.657Z,40.31
2019-04-16T09:07:12.396Z,39.45
2019-04-16T09:09:47.445Z,40.71
2019-04-16T09:12:18.043Z,38.91
2019-04-16T09:14:55.953Z,38.45
2019-04-16T09:17:27.149Z,37.98
2019-04-16T09:20:14.663Z,39.63
2019-04-16T09:22:49.287Z,39.46
2019-04-16T09:25:48.089Z,39.19
2019-04-16T09:28:35.831Z,38.54
2019-04-16T09:31:37.317Z,38.77
2019-04-16T09:34:26.613Z,40.16
2019-04-16T09:37:14.419Z,39.36
2019-04-16T09:40:15.491Z,40.36
2019-04-16T09:42:35.469Z,39.53
2019-04-16T09:45:06.622Z,38.68
2019-04-16T09:47:37.108Z,37.81
2019-04-16T09:50:11.059Z,37.60
2019-04-16T09:52:40.214Z,37.73
2019-04-16T09:55:10.768Z,37.41
2019-04-16T09:57:41.250Z,37.83
2019-04-16T10:00:16.846Z,36.85
2019-04-16T10:02:48.153Z,37.41
2019-04-16T10:05:18.727Z,37.63
2019-04-16T10:07:49.352Z,37.01
2019-04-16T10:10:20.056Z,36.47
2019-04-16T10:12:50.579Z,37.27
2019-04-16T10:15:21.177Z,36.98
2019-04-16T10:17:51.679Z,36.64
2019-04-16T10:20:22.364Z,36.41
2019-04-16T10:22:52.991Z,36.71
2019-04-16T10:25:23.473Z,36.18
2019-04-16T10:28:15.918Z,35.78
2019-04-16T10:30:51.639Z,36.53
2019-04-16T10:33:22.125Z,36.13
2019-04-16T10:35:52.676Z,36.09
2019-04-16T10:38:45.228Z,37.38
2019-04-16T10:41:23.415Z,36.80
2019-04-16T10:44:04.977Z,35.99
2019-04-16T10:46:47.861Z,36.80
2019-04-16T10:49:30.585Z,35.69
2019-04-16T10:52:18.349Z,36.20
2019-04-16T10:55:13.706Z,34.68
2019-04-16T10:58:06.187Z,35.89
2019-04-16T11:00:53.912Z,35.78
2019-04-16T11:03:52.422Z,35.14
2019-04-16T11:06:35.401Z,36.36
2019-04-16T11:09:07.735Z,36.02
2019-04-16T11:11:38.222Z,36.44
2019-04-16T11:14:08.787Z,35.50
2019-04-16T11:16:41.061Z,35.90
2019-04-16T11:19:11.851Z,35.28
2019-04-16T11:21:42.427Z,34.41
2019-04-16T11:24:13.029Z,33.84
2019-04-16T11:26:44.534Z,34.65
2019-04-16T11:29:15.151Z,33.41
2019-04-16T11:31:45.624Z,33.70
2019-04-16T11:34:16.239Z,34.14
2019-04-16T11:36:47.796Z,34.41
2019-04-16T11:39:18.431Z,34.54
2019-04-16T11:41:49.850Z,33.63
2019-04-16T11:44:20.336Z,32.44
2019-04-16T11:46:50.899Z,33.49
2019-04-16T11:49:22.205Z,33.04
2019-04-16T11:51:53.027Z,33.71
2019-04-16T11:54:23.468Z,32.64
2019-04-16T11:56:55.479Z,31.90
2019-04-16T11:59:26.250Z,32.83
2019-04-16T12:02:12.017Z,32.19
2019-04-16T12:04:49.467Z,30.76
2019-04-16T12:07:33.114Z,30.88
2019-04-16T12:10:21.539Z,31.89
2019-04-16T12:13:13.883Z,32.34
2019-04-16T12:16:03.207Z,32.20
2019-04-16T12:19:04.763Z,32.07
2019-04-16T12:21:58.537Z,31.56
2019-04-16T12:24:37.522Z,30.68
2019-04-16T12:27:32.926Z,30.49
2019-04-16T12:30:25.242Z,29.94
2019-04-16T12:33:01.932Z,30.46
2019-04-16T12:35:40.616Z,30.24
2019-04-16T12:38:26.711Z,30.01
2019-04-16T12:41:03.669Z,30.20
2019-04-16T12:43:36.721Z,30.03
2019-04-16T12:46:13.332Z,30.57
2019-04-16T12:49:01.645Z,30.07
2019-04-16T12:51:40.822Z,28.99
2019-04-16T12:54:32.401Z,28.76
2019-04-16T12:57:30.694Z,28.86
2019-04-16T13:00:12.962Z,28.77
2019-04-16T13:03:05.426Z,28.80
2019-04-16T13:05:44.689Z,28.74
2019-04-16T13:08:39.545Z,28.86
2019-04-16T13:11:35.208Z,28.64
2019-04-16T13:14:31.625Z,28.12
2019-04-16T13:17:08.935Z,28.90
2019-04-16T13:20:03.722Z,28.72
2019-04-16T13:22:39.240Z,28.81
2019-04-16T13:25:19.374Z,28.06
2019-04-16T13:27:50.804Z,27.69
2019-04-16T13:30:22.195Z,28.34
2019-04-16T13:32:52.759Z,28.33
2019-04-16T13:35:23.419Z,28.02
2019-04-16T13:37:53.911Z,28.92
2019-04-16T13:40:24.918Z,28.92
2019-04-16T13:42:55.487Z,29.47
2019-04-16T13:45:29.488Z,29.51
2019-04-16T13:48:14.726Z,31.51
2019-04-16T13:50:57.068Z,34.89
2019-04-16T13:53:47.402Z,38.30
2019-04-16T13:56:51.612Z,37.56
2019-04-16T13:59:43.604Z,41.71
2019-04-16T14:02:23.719Z,41.92
2019-04-16T14:04:55.828Z,39.63
2019-04-16T14:07:26.478Z,36.34
2019-04-16T14:09:57.029Z,36.93
2019-04-16T14:12:41.209Z,37.35
2019-04-16T14:14:59.713Z,36.70
2019-04-16T14:17:30.262Z,36.54
2019-04-16T14:20:00.739Z,36.03
2019-04-16T14:22:31.439Z,35.42
2019-04-16T14:25:01.926Z,34.93
2019-04-16T14:27:32.402Z,35.53
2019-04-16T14:30:09.968Z,36.00
2019-04-16T14:32:36.929Z,34.75
2019-04-16T14:35:33.628Z,33.66
2019-04-16T14:38:00.405Z,33.48
2019-04-16T14:40:31.453Z,32.51
2019-04-16T14:43:03.429Z,32.90
2019-04-16T14:45:57.509Z,32.88
2019-04-16T14:48:15.735Z,33.08
2019-04-16T14:50:46.199Z,33.03
2019-04-16T14:53:29.447Z,33.27
2019-04-16T14:56:04.345Z,33.40
2019-04-16T14:59:05.494Z,33.75
2019-04-16T15:01:47.063Z,34.06
2019-04-16T15:04:40.119Z,34.29
2019-04-16T15:07:28.671Z,34.29
2019-04-16T15:10:30.200Z,35.65
2019-04-16T15:13:11.355Z,36.19
2019-04-16T15:16:13.179Z,36.41
2019-04-16T15:18:59.263Z,36.31
2019-04-16T15:21:54.667Z,36.19
2019-04-16T15:24:52.819Z,36.46
2019-04-16T15:27:40.589Z,35.15
2019-04-16T15:30:30.272Z,35.92
2019-04-16T15:33:38.906Z,36.79
2019-04-16T15:36:18.487Z,45.10
2019-04-16T15:38:58.970Z,44.99
2019-04-16T15:41:36.025Z,46.49
2019-04-16T15:44:32.099Z,45.30
2019-04-16T15:47:16.937Z,44.20
2019-04-16T15:50:18.260Z,43.80
2019-04-16T15:53:07.538Z,43.17
2019-04-16T15:56:02.952Z,42.99
2019-04-16T15:59:01.064Z,42.24
2019-04-16T16:01:54.900Z,42.23
2019-04-16T16:04:47.097Z,42.42
2019-04-16T16:07:24.465Z,42.03
2019-04-16T16:10:02.539Z,42.29
2019-04-16T16:12:33.787Z,41.80
2019-04-16T16:15:08.998Z,41.83
2019-04-16T16:17:37.919Z,41.84
2019-04-16T16:20:11.235Z,41.89
2019-04-16T16:22:41.558Z,42.11
2019-04-16T16:25:12.157Z,42.25
2019-04-16T16:27:46.835Z,43.32
2019-04-16T16:30:15.724Z,44.24
2019-04-16T16:32:46.219Z,44.54
2019-04-16T16:35:18.027Z,44.91
2019-04-16T16:37:48.557Z,45.29
2019-04-16T16:40:19.086Z,45.61
2019-04-16T16:42:49.563Z,45.81
2019-04-16T16:45:21.825Z,46.29
2019-04-16T16:47:52.403Z,46.51
2019-04-16T16:50:22.848Z,47.04
2019-04-16T16:53:06.880Z,47.12
2019-04-16T16:55:40.431Z,47.19
2019-04-16T16:58:31.446Z,47.07
2019-04-16T17:01:33.582Z,47.11
2019-04-16T17:04:11.761Z,47.38
2019-04-16T17:06:42.262Z,47.52
2019-04-16T17:09:31.231Z,47.64
2019-04-16T17:12:01.934Z,48.01
2019-04-16T17:14:36.452Z,48.53
2019-04-16T17:17:13.896Z,48.71
2019-04-16T17:19:37.611Z,47.93
2019-04-16T17:22:08.157Z,47.44
2019-04-16T17:24:38.750Z,47.43
2019-04-16T17:27:09.287Z,47.45
2019-04-16T17:29:39.777Z,47.58
2019-04-16T17:32:10.425Z,46.79
2019-04-16T17:34:40.910Z,47.32
2019-04-16T17:37:11.479Z,47.26
2019-04-16T17:40:00.961Z,47.22
2019-04-16T17:42:38.399Z,47.07
2019-04-16T17:45:43.270Z,46.78
2019-04-16T17:48:44.554Z,46.74
2019-04-16T17:51:31.848Z,46.45
2019-04-16T17:54:27.303Z,46.30
2019-04-16T17:57:31.543Z,45.96
2019-04-16T18:00:18.324Z,45.69
2019-04-16T18:03:19.804Z,46.01
2019-04-16T18:06:12.271Z,45.89
2019-04-16T18:08:59.917Z,46.02
2019-04-16T18:11:49.347Z,46.32
2019-04-16T18:14:50.912Z,46.74
2019-04-16T18:17:47.026Z,46.75
2019-04-16T18:20:24.901Z,46.80
2019-04-16T18:23:04.791Z,46.98
2019-04-16T18:25:57.837Z,47.11
2019-04-16T18:28:32.425Z,47.21
2019-04-16T18:31:28.047Z,47.75
2019-04-16T18:34:10.010Z,47.72
2019-04-16T18:36:49.400Z,47.54
2019-04-16T18:39:43.323Z,47.52
2019-04-16T18:42:18.431Z,48.13
2019-04-16T18:44:59.854Z,47.77
2019-04-16T18:47:37.037Z,47.72
2019-04-16T18:50:10.878Z,47.75
2019-04-16T18:52:41.354Z,47.77
2019-04-16T18:55:11.900Z,47.90
2019-04-16T18:57:42.483Z,48.17
2019-04-16T19:00:32.136Z,47.96
2019-04-16T19:03:02.232Z,48.35
2019-04-16T19:05:32.679Z,48.32
2019-04-16T19:08:03.550Z,48.39
2019-04-16T19:10:34.083Z,48.45
2019-04-16T19:13:09.229Z,48.35
2019-04-16T19:15:36.848Z,48.35
2019-04-16T19:18:19.134Z,48.30
2019-04-16T19:20:39.501Z,48.88
2019-04-16T19:23:09.945Z,49.40
2019-04-16T19:25:40.419Z,49.72
2019-04-16T19:28:10.858Z,49.83
2019-04-16T19:30:41.347Z,50.53
2019-04-16T19:33:11.794Z,50.94
2019-04-16T19:35:42.284Z,50.57
2019-04-16T19:38:12.835Z,49.87
2019-04-16T19:40:43.524Z,49.65
2019-04-16T19:43:13.968Z,50.57
2019-04-16T19:45:44.545Z,50.80
2019-04-16T19:48:17.854Z,49.75
2019-04-16T19:50:47.233Z,50.01
2019-04-16T19:53:17.681Z,50.15
2019-04-16T19:55:48.116Z,50.25
2019-04-16T19:58:18.596Z,50.16
2019-04-16T20:00:50.440Z,50.01
2019-04-16T20:03:20.910Z,49.94
2019-04-16T20:05:51.494Z,49.96
2019-04-16T20:08:21.936Z,49.79
2019-04-16T20:10:52.459Z,49.58
2019-04-16T20:13:22.938Z,49.44
2019-04-16T20:15:53.427Z,49.60
2019-04-16T20:18:29.288Z,50.23
2019-04-16T20:21:01.200Z,49.88
2019-04-16T20:23:32.212Z,49.70
2019-04-16T20:26:02.647Z,49.93
2019-04-16T20:28:33.118Z,49.63
2019-04-16T20:31:04.467Z,49.68
2019-04-16T20:33:35.219Z,49.44
2019-04-16T20:36:05.761Z,49.60
2019-04-16T20:38:36.194Z,49.50
2019-04-16T20:41:06.682Z,50.76
2019-04-16T20:43:37.149Z,50.94
2019-04-16T20:46:07.682Z,50.91
2019-04-16T20:48:38.171Z,50.25
2019-04-16T20:51:08.613Z,50.36
2019-04-16T20:53:41.285Z,50.23
2019-04-16T20:56:11.240Z,50.58
2019-04-16T20:58:41.697Z,49.98
2019-04-16T21:01:12.231Z,50.22
2019-04-16T21:03:44.340Z,50.70
2019-04-16T21:06:14.865Z,50.69
2019-04-16T21:08:45.392Z,51.09
2019-04-16T21:11:15.884Z,51.65
2019-04-16T21:13:46.929Z,51.40
2019-04-16T21:16:18.587Z,51.30
2019-04-16T21:18:49.018Z,50.96
2019-04-16T21:21:23.140Z,50.92
2019-04-16T21:23:51.651Z,51.33
2019-04-16T21:26:22.229Z,51.33
2019-04-16T21:29:06.679Z,51.25
2019-04-16T21:31:42.368Z,51.38
2019-04-16T21:34:29.800Z,51.74
2019-04-16T21:37:16.630Z,51.70
2019-04-16T21:39:51.983Z,51.76
2019-04-16T21:42:22.531Z,51.80
2019-04-16T21:44:52.965Z,51.27
2019-04-16T21:47:24.321Z,51.24
2019-04-16T21:49:55.034Z,52.24
2019-04-16T21:52:25.584Z,51.76
2019-04-16T21:54:56.034Z,51.98
2019-04-16T21:57:26.529Z,51.96
2019-04-16T21:59:58.953Z,52.56
2019-04-16T22:02:37.894Z,53.19
2019-04-16T22:05:10.909Z,53.29
2019-04-16T22:07:41.383Z,53.39
2019-04-16T22:10:12.491Z,53.49
2019-04-16T22:12:44.735Z,53.87
2019-04-16T22:15:15.247Z,54.16
2019-04-16T22:17:45.740Z,54.24
2019-04-16T22:20:16.182Z,54.11
2019-04-16T22:22:47.475Z,54.22
2019-04-16T22:25:17.994Z,54.11
2019-04-16T22:27:48.439Z,54.34
2019-04-16T22:30:19.429Z,54.27
2019-04-16T22:32:50.567Z,54.62
2019-04-16T22:35:21.013Z,55.24
2019-04-16T22:37:51.490Z,54.82
2019-04-16T22:40:39.490Z,54.64
2019-04-16T22:43:21.882Z,54.91
2019-04-16T22:45:59.784Z,54.76
2019-04-16T22:48:30.254Z,54.73
2019-04-16T22:51:00.704Z,54.80
2019-04-16T22:53:31.160Z,54.66
2019-04-16T22:56:02.003Z,54.21
2019-04-16T22:58:48.050Z,54.19
2019-04-16T23:01:20.053Z,54.19
2019-04-16T23:03:53.352Z,54.49
2019-04-16T23:06:22.776Z,54.92
2019-04-16T23:08:53.221Z,55.00
2019-04-16T23:11:24.566Z,55.01
2019-04-16T23:13:55.034Z,55.00
2019-04-16T23:16:25.525Z,55.22
2019-04-16T23:18:55.992Z,55.25
2019-04-16T23:21:26.446Z,55.71
2019-04-16T23:23:57.011Z,55.54
2019-04-16T23:26:32.092Z,56.03
2019-04-16T23:28:59.755Z,55.46
2019-04-16T23:31:30.187Z,55.51
2019-04-16T23:34:04.573Z,55.37
2019-04-16T23:36:32.808Z,55.44
2019-04-16T23:39:04.905Z,55.04
2019-04-16T23:41:35.892Z,54.87
2019-04-16T23:44:40.403Z,54.58
2019-04-16T23:47:28.251Z,54.67
2019-04-16T23:50:16.292Z,54.50
2019-04-16T23:52:53.722Z,54.33
2019-04-16T23:55:41.502Z,54.48
2019-04-16T23:58:16.309Z,54.43
